Time;durP1;ratioP1;P1;durP2;ratioP2;P2;SDS_P1;SDS_P2;PMS_P1;PMS_P2;Temp;Humidity;BMP_temperature;BMP_pressure;BME280_temperature;BME280_humidity;BME280_pressure;Samples;Min_cycle;Max_cycle;Signal;HPM_P1;HPM_P2
2022/09/23 00:00:57;;;;;;;;;;;;;;;;;;4939281;28;21644;-66
2022/09/23 00:03:27;;;;;;;;;;;;;;;;;;4962212;28;19925;-66
2022/09/23 00:05:52;;;;;;;;;;;;;;;;;;4967652;28;20056;-66
2022/09/23 00:08:22;;;;;;;;;;;;;;;;;;4985550;28;19921;-68
2022/09/23 00:10:47;;;;;;;;;;;;;;;;;;4971256;28;19999;-67
2022/09/23 00:13:13;;;;;;;;;;;;;;;;;;4971927;28;20019;-66
2022/09/23 00:15:40;;;;;;;;;;;;;;;;;;4961232;28;19957;-67
2022/09/23 00:18:07;;;;;;;;;;;;;;;;;;4988137;28;19932;-66
2022/09/23 00:20:32;;;;;;;;;;;;;;;;;;4986989;28;19967;-67
2022/09/23 00:22:58;;;;;;;;;;;;;;;;;;4987160;28;19918;-67
2022/09/23 00:25:24;;;;;;;;;;;;;;;;;;4987595;28;19925;-66
2022/09/23 00:27:49;;;;;;;;;;;;;;;;;;4954965;28;19929;-66
2022/09/23 00:30:17;;;;;;;;;;;;;;;;;;4966962;28;19960;-69
2022/09/23 00:32:51;;;;;;;;;;;;;;;;;;4982954;28;19926;-67
2022/09/23 00:35:17;;;;;;;;;;;;;;;;;;4965974;28;20534;-67
2022/09/23 00:37:45;;;;;;;;;;;;;;;;;;4982327;28;19917;-67
2022/09/23 00:40:11;;;;;;;;;;;;;;;;;;4954225;28;19949;-66
2022/09/23 00:42:37;;;;;;;;;;;;;;;;;;4959909;28;19961;-67
2022/09/23 00:45:06;;;;;;;;;;;;;;;;;;4968895;28;19922;-67
2022/09/23 00:47:34;;;;;;;;;;;;;;;;;;4982723;28;19917;-66
2022/09/23 00:50:02;;;;;;;;;;;;;;;;;;4987963;28;19928;-67
2022/09/23 00:52:30;;;;;;;;;;;;;;;;;;4984730;28;21385;-68
2022/09/23 00:54:57;;;;;;;;;;;;;;;;;;4970005;28;19931;-67
2022/09/23 00:57:25;;;;;;;;;;;;;;;;;;4970728;28;20354;-66
2022/09/23 00:59:53;;;;;;;;;;;;;;;;;;4984514;28;19995;-66
2022/09/23 01:02:19;;;;;;;;;;;;;;;;;;4970066;28;20404;-66
2022/09/23 01:04:47;;;;;;;;;;;;;;;;;;4965518;28;21827;-67
2022/09/23 01:07:13;;;;;;;;;;;;;;;;;;4969600;28;19922;-67
2022/09/23 01:09:38;;;;;;;;;;;;;;;;;;4982269;28;19929;-68
2022/09/23 01:12:06;;;;;;;;;;;;;;;;;;4969706;28;19928;-66
2022/09/23 01:14:33;;;;;;;;;;;;;;;;;;4971021;28;19926;-67
2022/09/23 01:17:15;;;;;;;;;;;;;;;;;;4982948;28;19921;-67
2022/09/23 01:19:41;;;;;;;;;;;;;;;;;;4969067;28;19921;-67
2022/09/23 01:22:07;;;;;;;;;;;;;;;;;;4953971;28;20588;-65
2022/09/23 01:24:34;;;;;;;;;;;;;;;;;;4967715;28;20012;-66
2022/09/23 01:30:16;;;;;;;;;;;;;;;;;;4981267;28;20858;-66
2022/09/23 01:32:42;;;;;;;;;;;;;;;;;;4952695;28;19918;-66
2022/09/23 01:35:07;;;;;;;;;;;;;;;;;;4964481;28;19925;-66
2022/09/23 01:37:33;;;;;;;;;;;;;;;;;;4966509;28;19918;-66
2022/09/23 01:40:00;;;;;;;;;;;;;;;;;;4966228;28;19929;-65
2022/09/23 01:42:28;;;;;;;;;;;;;;;;;;4983954;28;20110;-66
2022/09/23 01:44:53;;;;;;;;;;;;;;;;;;4982054;28;19921;-67
2022/09/23 01:47:21;;;;;;;;;;;;;;;;;;4966887;28;19926;-66
2022/09/23 01:49:51;;;;;;;;;;;;;;;;;;4983435;28;19948;-66
2022/09/23 01:52:17;;;;;;;;;;;;;;;;;;4965254;28;20724;-66
2022/09/23 01:54:45;;;;;;;;;;;;;;;;;;4952353;28;19943;-67
2022/09/23 01:57:12;;;;;;;;;;;;;;;;;;4982569;28;19967;-66
2022/09/23 02:02:24;;;;;;;;;;;;;;;;;;4980402;28;19921;-66
2022/09/23 02:04:50;;;;;;;;;;;;;;;;;;4956284;28;19933;-66
2022/09/23 02:07:20;;;;;;;;;;;;;;;;;;4980184;28;20552;-66
2022/09/23 02:09:47;;;;;;;;;;;;;;;;;;4963705;28;21238;-66
2022/09/23 02:12:13;;;;;;;;;;;;;;;;;;4970193;28;19924;-66
2022/09/23 02:14:41;;;;;;;;;;;;;;;;;;4967236;28;19929;-66
2022/09/23 02:17:09;;;;;;;;;;;;;;;;;;4968473;28;19921;-67
2022/09/23 02:19:39;;;;;;;;;;;;;;;;;;4982330;28;20589;-67
2022/09/23 02:22:06;;;;;;;;;;;;;;;;;;4977708;28;19975;-67
2022/09/23 02:24:34;;;;;;;;;;;;;;;;;;4983989;28;19927;-67
2022/09/23 02:27:00;;;;;;;;;;;;;;;;;;4982494;28;19921;-67
2022/09/23 02:29:25;;;;;;;;;;;;;;;;;;4982794;28;19928;-66
2022/09/23 02:31:53;;;;;;;;;;;;;;;;;;4981344;28;20360;-66
2022/09/23 02:34:19;;;;;;;;;;;;;;;;;;4951615;28;19930;-67
2022/09/23 02:36:48;;;;;;;;;;;;;;;;;;4976498;28;20028;-67
2022/09/23 02:39:14;;;;;;;;;;;;;;;;;;4948065;28;19928;-67
2022/09/23 02:41:41;;;;;;;;;;;;;;;;;;4970506;28;20836;-67
2022/09/23 02:44:07;;;;;;;;;;;;;;;;;;4982804;28;20012;-67
2022/09/23 02:46:32;;;;;;;;;;;;;;;;;;4949671;28;20567;-66
2022/09/23 02:48:59;;;;;;;;;;;;;;;;;;4983282;28;20008;-66
2022/09/23 02:51:24;;;;;;;;;;;;;;;;;;4953795;28;19921;-67
2022/09/23 02:53:52;;;;;;;;;;;;;;;;;;4980910;28;19953;-67
2022/09/23 02:56:18;;;;;;;;;;;;;;;;;;4953659;28;20008;-65
2022/09/23 02:58:46;;;;;;;;;;;;;;;;;;4963818;28;19930;-66
2022/09/23 03:01:12;;;;;;;;;;;;;;;;;;4981087;28;19917;-66
2022/09/23 03:03:37;;;;;;;;;;;;;;;;;;4953411;28;19930;-67
2022/09/23 03:06:02;;;;;;;;;;;;;;;;;;4964091;28;19961;-67
2022/09/23 03:08:30;;;;;;;;;;;;;;;;;;4982513;28;19922;-66
2022/09/23 03:10:55;;;;;;;;;;;;;;;;;;4956378;28;20365;-66
2022/09/23 03:13:21;;;;;;;;;;;;;;;;;;4981900;28;19918;-66
2022/09/23 03:15:50;;;;;;;;;;;;;;;;;;4966426;28;19917;-67
2022/09/23 03:18:16;;;;;;;;;;;;;;;;;;4967864;28;19956;-68
2022/09/23 03:20:48;;;;;;;;;;;;;;;;;;4959495;28;19921;-67
2022/09/23 03:23:14;;;;;;;;;;;;;;;;;;4967143;28;20384;-66
2022/09/23 03:25:39;;;;;;;;;;;;;;;;;;4958984;28;19993;-68
2022/09/23 03:28:07;;;;;;;;;;;;;;;;;;4968107;28;21063;-67
2022/09/23 03:30:34;;;;;;;;;;;;;;;;;;4965992;28;19926;-66
2022/09/23 03:32:59;;;;;;;;;;;;;;;;;;4984688;28;19983;-67
2022/09/23 03:35:25;;;;;;;;;;;;;;;;;;4970634;28;21418;-66
2022/09/23 03:37:50;;;;;;;;;;;;;;;;;;4967909;28;20732;-67
2022/09/23 03:40:15;;;;;;;;;;;;;;;;;;4965907;28;20063;-67
2022/09/23 03:42:41;;;;;;;;;;;;;;;;;;4967838;28;19963;-70
2022/09/23 03:45:08;;;;;;;;;;;;;;;;;;4969132;28;19922;-66
2022/09/23 03:47:33;;;;;;;;;;;;;;;;;;4954068;28;21013;-66
2022/09/23 03:49:58;;;;;;;;;;;;;;;;;;4986075;28;19928;-67
2022/09/23 03:52:27;;;;;;;;;;;;;;;;;;4984060;28;19921;-66
2022/09/23 03:54:52;;;;;;;;;;;;;;;;;;4983546;28;19976;-65
2022/09/23 03:57:23;;;;;;;;;;;;;;;;;;4962340;28;19921;-66
2022/09/23 03:59:49;;;;;;;;;;;;;;;;;;4981953;28;19937;-66
2022/09/23 04:02:17;;;;;;;;;;;;;;;;;;4983075;28;19925;-66
2022/09/23 04:04:42;;;;;;;;;;;;;;;;;;4949758;28;19929;-66
2022/09/23 04:07:08;;;;;;;;;;;;;;;;;;4983103;28;21029;-66
2022/09/23 04:09:33;;;;;;;;;;;;;;;;;;4983361;28;20420;-67
2022/09/23 04:11:58;;;;;;;;;;;;;;;;;;4966136;28;20019;-67
2022/09/23 04:14:26;;;;;;;;;;;;;;;;;;4977931;28;19925;-67
2022/09/23 04:16:51;;;;;;;;;;;;;;;;;;4982424;28;19921;-66
2022/09/23 04:19:21;;;;;;;;;;;;;;;;;;4952956;28;19927;-66
2022/09/23 04:21:47;;;;;;;;;;;;;;;;;;4983019;28;19917;-65
2022/09/23 04:24:12;;;;;;;;;;;;;;;;;;4971348;28;20000;-67
2022/09/23 04:26:40;;;;;;;;;;;;;;;;;;4978363;28;19922;-67
2022/09/23 04:29:05;;;;;;;;;;;;;;;;;;4962801;28;19928;-66
2022/09/23 04:31:33;;;;;;;;;;;;;;;;;;4968882;28;19930;-67
2022/09/23 04:33:59;;;;;;;;;;;;;;;;;;4953585;28;20668;-66
2022/09/23 04:36:29;;;;;;;;;;;;;;;;;;4969796;28;19913;-68
2022/09/23 04:38:57;;;;;;;;;;;;;;;;;;4965273;28;19922;-67
2022/09/23 04:41:22;;;;;;;;;;;;;;;;;;4983420;28;19922;-66
2022/09/23 04:43:48;;;;;;;;;;;;;;;;;;4968973;28;20565;-68
2022/09/23 04:46:16;;;;;;;;;;;;;;;;;;4969603;28;19926;-67
2022/09/23 04:48:44;;;;;;;;;;;;;;;;;;4968523;28;19917;-66
2022/09/23 04:54:26;;;;;;;;;;;;;;;;;;4983455;28;20138;-67
2022/09/23 04:56:51;;;;;;;;;;;;;;;;;;4981122;28;22093;-65
2022/09/23 04:59:19;;;;;;;;;;;;;;;;;;4969783;28;19952;-66
2022/09/23 05:01:44;;;;;;;;;;;;;;;;;;4967541;28;20387;-66
2022/09/23 05:04:12;;;;;;;;;;;;;;;;;;4959837;28;19975;-67
2022/09/23 05:06:37;;;;;;;;;;;;;;;;;;4968386;28;19929;-66
2022/09/23 05:09:04;;;;;;;;;;;;;;;;;;4960991;28;19922;-67
2022/09/23 05:11:30;;;;;;;;;;;;;;;;;;4966111;28;19985;-66
2022/09/23 05:14:00;;;;;;;;;;;;;;;;;;4966068;28;20056;-67
2022/09/23 05:16:26;;;;;;;;;;;;;;;;;;4954130;28;20131;-67
2022/09/23 05:18:53;;;;;;;;;;;;;;;;;;4981868;28;20364;-67
2022/09/23 05:21:19;;;;;;;;;;;;;;;;;;4967735;28;19918;-66
2022/09/23 05:23:45;;;;;;;;;;;;;;;;;;4980661;28;20419;-66
2022/09/23 05:26:10;;;;;;;;;;;;;;;;;;4984166;28;20546;-67
2022/09/23 05:28:38;;;;;;;;;;;;;;;;;;4983733;28;19922;-67
2022/09/23 05:31:04;;;;;;;;;;;;;;;;;;4985502;28;19924;-66
2022/09/23 05:33:31;;;;;;;;;;;;;;;;;;4985786;28;19948;-66
2022/09/23 05:35:57;;;;;;;;;;;;;;;;;;4967164;28;19929;-67
2022/09/23 05:38:30;;;;;;;;;;;;;;;;;;4970763;28;19927;-66
2022/09/23 05:40:56;;;;;;;;;;;;;;;;;;4984534;28;20436;-67
2022/09/23 05:43:21;;;;;;;;;;;;;;;;;;4981360;28;19927;-66
2022/09/23 05:45:47;;;;;;;;;;;;;;;;;;4982917;28;20063;-67
2022/09/23 05:48:15;;;;;;;;;;;;;;;;;;4969054;28;20668;-66
2022/09/23 05:50:42;;;;;;;;;;;;;;;;;;4963633;28;20504;-67
2022/09/23 05:53:13;;;;;;;;;;;;;;;;;;4963738;28;19921;-67
2022/09/23 05:55:38;;;;;;;;;;;;;;;;;;4965899;28;20205;-65
2022/09/23 06:01:21;;;;;;;;;;;;;;;;;;4984261;28;21828;-68
2022/09/23 06:03:46;;;;;;;;;;;;;;;;;;4959936;28;19929;-67
2022/09/23 06:06:14;;;;;;;;;;;;;;;;;;4951781;28;20478;-67
2022/09/23 06:08:41;;;;;;;;;;;;;;;;;;4953443;28;19991;-68
2022/09/23 06:11:07;;;;;;;;;;;;;;;;;;4981425;28;19929;-66
2022/09/23 06:13:32;;;;;;;;;;;;;;;;;;4978954;28;20073;-66
2022/09/23 06:15:57;;;;;;;;;;;;;;;;;;4957777;28;20893;-65
2022/09/23 06:18:23;;;;;;;;;;;;;;;;;;4970392;28;19941;-67
2022/09/23 06:20:49;;;;;;;;;;;;;;;;;;4972327;28;19952;-68
2022/09/23 06:23:14;;;;;;;;;;;;;;;;;;4963121;28;19918;-68
2022/09/23 06:25:39;;;;;;;;;;;;;;;;;;4950465;28;19932;-67
2022/09/23 06:28:10;;;;;;;;;;;;;;;;;;4966096;28;20007;-66
2022/09/23 06:30:36;;;;;;;;;;;;;;;;;;4978027;28;19922;-68
2022/09/23 06:33:02;;;;;;;;;;;;;;;;;;4980683;28;19945;-66
2022/09/23 06:35:31;;;;;;;;;;;;;;;;;;4977441;28;21964;-67
2022/09/23 06:37:56;;;;;;;;;;;;;;;;;;4982673;28;20451;-67
2022/09/23 06:40:22;;;;;;;;;;;;;;;;;;4982221;28;19921;-66
2022/09/23 06:42:47;;;;;;;;;;;;;;;;;;4978128;28;19924;-67
2022/09/23 06:45:13;;;;;;;;;;;;;;;;;;4968428;28;19917;-66
2022/09/23 06:47:54;;;;;;;;;;;;;;;;;;4968396;28;19924;-66
2022/09/23 06:50:38;;;;;;;;;;;;;;;;;;4968520;28;22076;-67
2022/09/23 06:56:21;;;;;;;;;;;;;;;;;;4985138;28;19936;-66
2022/09/23 06:58:49;;;;;;;;;;;;;;;;;;4959604;28;19925;-68
2022/09/23 07:01:15;;;;;;;;;;;;;;;;;;4983847;28;20445;-67
2022/09/23 07:03:40;;;;;;;;;;;;;;;;;;4978782;28;19922;-67
2022/09/23 07:06:11;;;;;;;;;;;;;;;;;;4985490;28;19921;-68
2022/09/23 07:08:36;;;;;;;;;;;;;;;;;;4965689;28;19921;-68
2022/09/23 07:11:01;;;;;;;;;;;;;;;;;;4971410;28;19922;-67
2022/09/23 07:13:27;;;;;;;;;;;;;;;;;;4959706;28;20528;-67
2022/09/23 07:15:52;;;;;;;;;;;;;;;;;;4971993;28;20464;-66
2022/09/23 07:18:18;;;;;;;;;;;;;;;;;;4965461;28;19932;-67
2022/09/23 07:20:47;;;;;;;;;;;;;;;;;;4987824;28;19917;-66
2022/09/23 07:23:12;;;;;;;;;;;;;;;;;;4957916;28;19975;-66
2022/09/23 07:25:48;;;;;;;;;;;;;;;;;;4987141;28;19921;-66
2022/09/23 07:28:13;;;;;;;;;;;;;;;;;;4988684;28;19928;-67
2022/09/23 07:30:42;;;;;;;;;;;;;;;;;;4987639;28;19940;-66
2022/09/23 07:33:08;;;;;;;;;;;;;;;;;;4957276;28;19940;-66
2022/09/23 07:35:35;;;;;;;;;;;;;;;;;;4971852;28;20361;-68
2022/09/23 07:38:01;;;;;;;;;;;;;;;;;;4956096;28;19937;-67
2022/09/23 07:40:26;;;;;;;;;;;;;;;;;;4957913;28;19926;-67
2022/09/23 07:45:42;;;;;;;;;;;;;;;;;;4986876;28;20012;-67
2022/09/23 07:51:02;;;;;;;;;;;;;;;;;;4972155;28;19995;-67
2022/09/23 07:53:31;;;;;;;;;;;;;;;;;;4963964;28;20407;-68
2022/09/23 07:56:03;;;;;;;;;;;;;;;;;;4961030;28;19957;-66
2022/09/23 07:58:32;;;;;;;;;;;;;;;;;;4971800;28;19951;-67
2022/09/23 08:00:58;;;;;;;;;;;;;;;;;;4956545;28;19929;-67
2022/09/23 08:03:23;;;;;;;;;;;;;;;;;;4987067;28;19925;-67
2022/09/23 08:05:52;;;;;;;;;;;;;;;;;;4971401;28;19976;-66
2022/09/23 08:08:17;;;;;;;;;;;;;;;;;;4953975;28;19973;-66
2022/09/23 08:10:45;;;;;;;;;;;;;;;;;;4958753;28;19926;-67
2022/09/23 08:13:10;;;;;;;;;;;;;;;;;;4969685;28;19964;-67
2022/09/23 08:15:35;;;;;;;;;;;;;;;;;;4971392;28;20044;-67
2022/09/23 08:18:04;;;;;;;;;;;;;;;;;;4986336;28;19917;-68
2022/09/23 08:20:43;;;;;;;;;;;;;;;;;;4987820;28;19953;-67
2022/09/23 08:26:37;;;;;;;;;;;;;;;;;;4986633;28;19976;-67
2022/09/23 08:29:03;;;;;;;;;;;;;;;;;;4970245;28;19944;-68
2022/09/23 08:31:28;;;;;;;;;;;;;;;;;;4971692;28;20633;-69
2022/09/23 08:33:56;;;;;;;;;;;;;;;;;;4970394;28;20475;-67
2022/09/23 08:36:21;;;;;;;;;;;;;;;;;;4974016;28;19922;-66
2022/09/23 08:42:03;;;;;;;;;;;;;;;;;;4986735;28;19996;-68
2022/09/23 08:44:41;;;;;;;;;;;;;;;;;;4972385;28;19960;-66
2022/09/23 08:47:11;;;;;;;;;;;;;;;;;;4957986;28;20020;-67
2022/09/23 08:49:38;;;;;;;;;;;;;;;;;;4987532;28;19917;-67
2022/09/23 08:55:20;;;;;;;;;;;;;;;;;;4984620;28;19932;-67
2022/09/23 08:57:45;;;;;;;;;;;;;;;;;;4971138;28;19947;-67
2022/09/23 09:00:14;;;;;;;;;;;;;;;;;;4954398;28;19922;-67
2022/09/23 09:02:39;;;;;;;;;;;;;;;;;;4972256;28;20288;-66
2022/09/23 09:05:08;;;;;;;;;;;;;;;;;;4968532;28;19941;-67
2022/09/23 09:07:34;;;;;;;;;;;;;;;;;;4957604;28;19967;-66
2022/09/23 09:10:00;;;;;;;;;;;;;;;;;;4968718;28;20039;-67
2022/09/23 09:12:25;;;;;;;;;;;;;;;;;;4967523;28;19925;-66
2022/09/23 09:14:53;;;;;;;;;;;;;;;;;;4958346;28;19960;-67
2022/09/23 09:17:23;;;;;;;;;;;;;;;;;;4969817;28;19933;-67
2022/09/23 09:22:39;;;;;;;;;;;;;;;;;;4984471;28;19925;-68
2022/09/23 09:28:03;;;;;;;;;;;;;;;;;;4985802;28;19918;-68
2022/09/23 09:30:31;;;;;;;;;;;;;;;;;;4954688;28;19924;-67
2022/09/23 09:32:56;;;;;;;;;;;;;;;;;;4956209;28;19928;-68
2022/09/23 09:35:32;;;;;;;;;;;;;;;;;;4985679;28;19925;-67
2022/09/23 09:41:23;;;;;;;;;;;;;;;;;;4983030;28;21317;-68
2022/09/23 09:43:55;;;;;;;;;;;;;;;;;;4969292;28;19917;-69
2022/09/23 09:46:23;;;;;;;;;;;;;;;;;;4955587;28;20048;-68
2022/09/23 09:48:52;;;;;;;;;;;;;;;;;;4984903;28;19925;-67
2022/09/23 09:54:13;;;;;;;;;;;;;;;;;;4971294;28;19930;-68
2022/09/23 09:56:43;;;;;;;;;;;;;;;;;;4970868;28;21956;-68
2022/09/23 09:59:09;;;;;;;;;;;;;;;;;;4968722;28;19922;-67
2022/09/23 10:01:37;;;;;;;;;;;;;;;;;;4954050;28;19928;-67
2022/09/23 10:04:03;;;;;;;;;;;;;;;;;;4984849;28;19937;-66
2022/09/23 10:06:29;;;;;;;;;;;;;;;;;;4984367;28;19921;-67
2022/09/23 10:08:58;;;;;;;;;;;;;;;;;;4955761;28;19922;-67
2022/09/23 10:11:26;;;;;;;;;;;;;;;;;;4970143;28;19925;-67
2022/09/23 10:13:51;;;;;;;;;;;;;;;;;;4971137;28;19929;-68
2022/09/23 10:19:33;;;;;;;;;;;;;;;;;;4985665;28;19928;-67
2022/09/23 10:22:01;;;;;;;;;;;;;;;;;;4986151;28;19925;-66
2022/09/23 10:24:26;;;;;;;;;;;;;;;;;;4969539;28;19921;-66
2022/09/23 10:27:06;;;;;;;;;;;;;;;;;;4969090;28;20373;-67
2022/09/23 10:32:19;;;;;;;;;;;;;;;;;;4984589;28;19929;-67
2022/09/23 10:34:45;;;;;;;;;;;;;;;;;;4972143;28;19932;-68
2022/09/23 10:37:10;;;;;;;;;;;;;;;;;;4982183;28;19925;-67
2022/09/23 10:47:53;;;;;;;;;;;;;;;;;;4983494;28;19924;-66
2022/09/23 10:50:18;;;;;;;;;;;;;;;;;;4955349;28;19926;-66
2022/09/23 10:55:52;;;;;;;;;;;;;;;;;;4981390;28;19932;-67
2022/09/23 10:58:20;;;;;;;;;;;;;;;;;;4968733;28;20495;-68
2022/09/23 11:01:04;;;;;;;;;;;;;;;;;;4984076;28;20911;-67
2022/09/23 11:03:34;;;;;;;;;;;;;;;;;;4984275;28;19926;-68
2022/09/23 11:06:23;;;;;;;;;;;;;;;;;;4983863;28;19953;-67
2022/09/23 11:11:42;;;;;;;;;;;;;;;;;;4982477;28;19994;-67
2022/09/23 11:14:15;;;;;;;;;;;;;;;;;;4954587;28;22479;-67
2022/09/23 11:19:59;;;;;;;;;;;;;;;;;;4982784;28;19944;-66
2022/09/23 11:25:44;;;;;;;;;;;;;;;;;;4985581;28;20003;-67
2022/09/23 11:28:12;;;;;;;;;;;;;;;;;;4969742;28;20419;-67
2022/09/23 11:33:53;;;;;;;;;;;;;;;;;;4982570;28;20403;-67
2022/09/23 11:36:18;;;;;;;;;;;;;;;;;;4969088;28;19960;-68
2022/09/23 11:38:46;;;;;;;;;;;;;;;;;;4982591;28;19921;-66
2022/09/23 11:41:12;;;;;;;;;;;;;;;;;;4969255;28;19976;-68
2022/09/23 11:43:44;;;;;;;;;;;;;;;;;;4985373;28;20008;-67
2022/09/23 11:48:57;;;;;;;;;;;;;;;;;;4967221;28;20664;-68
2022/09/23 11:54:15;;;;;;;;;;;;;;;;;;4987352;28;19925;-67
2022/09/23 11:56:43;;;;;;;;;;;;;;;;;;4970788;28;19935;-67
2022/09/23 11:59:20;;;;;;;;;;;;;;;;;;4970862;28;19936;-68
2022/09/23 12:01:45;;;;;;;;;;;;;;;;;;4985243;28;20061;-66
2022/09/23 12:10:14;;;;;;;;;;;;;;;;;;4962059;28;19956;-67
2022/09/23 12:12:39;;;;;;;;;;;;;;;;;;4946330;28;20609;-66
2022/09/23 12:15:09;;;;;;;;;;;;;;;;;;4936854;28;20059;-67
2022/09/23 12:17:48;;;;;;;;;;;;;;;;;;4960988;28;20016;-66
2022/09/23 12:20:15;;;;;;;;;;;;;;;;;;4944561;28;19981;-67
2022/09/23 12:22:40;;;;;;;;;;;;;;;;;;4944507;28;20398;-66
2022/09/23 12:25:18;;;;;;;;;;;;;;;;;;4944308;28;19948;-67
2022/09/23 12:27:44;;;;;;;;;;;;;;;;;;4927197;28;20459;-67
2022/09/23 12:30:09;;;;;;;;;;;;;;;;;;4963192;28;19918;-65
2022/09/23 12:32:37;;;;;;;;;;;;;;;;;;4951527;28;19924;-67
2022/09/23 12:35:12;;;;;;;;;;;;;;;;;;4935462;28;19937;-66
2022/09/23 12:37:37;;;;;;;;;;;;;;;;;;4946055;28;20551;-67
2022/09/23 12:40:02;;;;;;;;;;;;;;;;;;4960125;28;19928;-67
2022/09/23 12:42:28;;;;;;;;;;;;;;;;;;4961517;28;20551;-66
2022/09/23 12:44:53;;;;;;;;;;;;;;;;;;4952090;28;19918;-67
2022/09/23 12:50:18;;;;;;;;;;;;;;;;;;4946282;28;19926;-67
2022/09/23 12:52:46;;;;;;;;;;;;;;;;;;4948674;28;19922;-67
2022/09/23 12:55:11;;;;;;;;;;;;;;;;;;4960258;28;20557;-67
2022/09/23 12:57:40;;;;;;;;;;;;;;;;;;4960364;28;19934;-67
2022/09/23 13:08:52;;;;;;;;;;;;;;;;;;4985390;28;19944;-66
2022/09/23 13:11:20;;;;;;;;;;;;;;;;;;4983207;28;19917;-67
2022/09/23 13:13:45;;;;;;;;;;;;;;;;;;4953845;28;19922;-66
2022/09/23 13:16:10;;;;;;;;;;;;;;;;;;4971083;28;19979;-67
2022/09/23 13:18:36;;;;;;;;;;;;;;;;;;4979171;28;20376;-65
2022/09/23 13:21:06;;;;;;;;;;;;;;;;;;4968524;28;20163;-68
2022/09/23 13:23:34;;;;;;;;;;;;;;;;;;4953973;28;19917;-67
2022/09/23 13:25:59;;;;;;;;;;;;;;;;;;4985527;28;20396;-67
2022/09/23 13:28:26;;;;;;;;;;;;;;;;;;4947372;28;21175;-66
2022/09/23 13:30:57;;;;;;;;;;;;;;;;;;4969519;28;19921;-66
2022/09/23 13:33:22;;;;;;;;;;;;;;;;;;4971488;28;20408;-66
2022/09/23 13:35:49;;;;;;;;;;;;;;;;;;4964458;28;19956;-66
2022/09/23 13:38:34;;;;;;;;;;;;;;;;;;4970098;28;20570;-67
2022/09/23 13:41:08;;;;;;;;;;;;;;;;;;4969995;28;19979;-66
2022/09/23 13:46:53;;;;;;;;;;;;;;;;;;4982544;28;20534;-67
2022/09/23 13:49:20;;;;;;;;;;;;;;;;;;4983971;28;19929;-67
2022/09/23 13:51:48;;;;;;;;;;;;;;;;;;4969334;28;20676;-66
2022/09/23 13:54:14;;;;;;;;;;;;;;;;;;4984471;28;19930;-66
2022/09/23 13:56:41;;;;;;;;;;;;;;;;;;4968864;28;19921;-66
2022/09/23 13:59:09;;;;;;;;;;;;;;;;;;4970420;28;19932;-65
2022/09/23 14:01:35;;;;;;;;;;;;;;;;;;4971776;28;20384;-67
2022/09/23 14:07:17;;;;;;;;;;;;;;;;;;4980067;28;19972;-68
2022/09/23 14:09:45;;;;;;;;;;;;;;;;;;4963218;28;19917;-68
2022/09/23 14:12:13;;;;;;;;;;;;;;;;;;4952230;28;19921;-67
2022/09/23 14:14:38;;;;;;;;;;;;;;;;;;4982929;28;20008;-67
2022/09/23 14:17:04;;;;;;;;;;;;;;;;;;4961726;28;20919;-67
2022/09/23 14:19:29;;;;;;;;;;;;;;;;;;4967980;28;19924;-68
2022/09/23 14:25:12;;;;;;;;;;;;;;;;;;4983950;28;19928;-66
2022/09/23 14:27:38;;;;;;;;;;;;;;;;;;4983400;28;19921;-65
2022/09/23 14:30:04;;;;;;;;;;;;;;;;;;4982741;28;19917;-64
2022/09/23 14:32:29;;;;;;;;;;;;;;;;;;4983293;28;19985;-66
2022/09/23 14:35:02;;;;;;;;;;;;;;;;;;4968229;28;21940;-66
2022/09/23 14:40:11;;;;;;;;;;;;;;;;;;4983070;28;19922;-65
2022/09/23 14:42:39;;;;;;;;;;;;;;;;;;4954796;28;20444;-65
2022/09/23 14:48:24;;;;;;;;;;;;;;;;;;4982619;28;19931;-63
2022/09/23 14:50:51;;;;;;;;;;;;;;;;;;4967090;28;19925;-64
2022/09/23 14:56:37;;;;;;;;;;;;;;;;;;4976027;28;19968;-64
2022/09/23 14:59:05;;;;;;;;;;;;;;;;;;4958870;28;19972;-64
2022/09/23 15:01:30;;;;;;;;;;;;;;;;;;4975081;28;19943;-64
2022/09/23 15:03:56;;;;;;;;;;;;;;;;;;4973918;28;19965;-63
2022/09/23 15:06:22;;;;;;;;;;;;;;;;;;4947505;28;19933;-62
2022/09/23 15:08:49;;;;;;;;;;;;;;;;;;4949320;28;19980;-61
2022/09/23 15:11:15;;;;;;;;;;;;;;;;;;4965349;28;19921;-59
2022/09/23 15:13:40;;;;;;;;;;;;;;;;;;4983139;28;19984;-61
2022/09/23 15:16:08;;;;;;;;;;;;;;;;;;4983023;28;20013;-60
2022/09/23 15:18:34;;;;;;;;;;;;;;;;;;4978735;28;19921;-60
2022/09/23 15:21:01;;;;;;;;;;;;;;;;;;4974993;28;19926;-61
2022/09/23 15:23:29;;;;;;;;;;;;;;;;;;4958121;28;20016;-61
2022/09/23 15:26:10;;;;;;;;;;;;;;;;;;4964523;28;19967;-61
2022/09/23 15:28:35;;;;;;;;;;;;;;;;;;4965084;28;20587;-62
2022/09/23 15:31:01;;;;;;;;;;;;;;;;;;4954015;28;19921;-62
2022/09/23 15:33:28;;;;;;;;;;;;;;;;;;4966379;28;19921;-62
2022/09/23 15:36:09;;;;;;;;;;;;;;;;;;4980160;28;19925;-61
2022/09/23 15:38:37;;;;;;;;;;;;;;;;;;4951670;28;19921;-61
2022/09/23 15:41:02;;;;;;;;;;;;;;;;;;4963485;28;19929;-61
2022/09/23 15:43:28;;;;;;;;;;;;;;;;;;4981932;28;19925;-60
2022/09/23 15:46:07;;;;;;;;;;;;;;;;;;4981093;28;20480;-61
2022/09/23 15:48:33;;;;;;;;;;;;;;;;;;4964490;28;19922;-61
2022/09/23 15:51:01;;;;;;;;;;;;;;;;;;4977355;28;20488;-61
2022/09/23 15:53:27;;;;;;;;;;;;;;;;;;4964745;28;19930;-61
2022/09/23 15:56:04;;;;;;;;;;;;;;;;;;4965870;28;19926;-62
2022/09/23 15:58:29;;;;;;;;;;;;;;;;;;4979487;28;19918;-61
2022/09/23 16:04:14;;;;;;;;;;;;;;;;;;4981010;28;21091;-62
2022/09/23 16:06:42;;;;;;;;;;;;;;;;;;4963712;28;19925;-62
2022/09/23 16:09:13;;;;;;;;;;;;;;;;;;4985842;28;19921;-62
2022/09/23 16:11:56;;;;;;;;;;;;;;;;;;4985677;28;20005;-63
2022/09/23 16:14:28;;;;;;;;;;;;;;;;;;4968334;28;19937;-62
2022/09/23 16:16:53;;;;;;;;;;;;;;;;;;4949684;28;19925;-61
2022/09/23 16:19:18;;;;;;;;;;;;;;;;;;4968013;28;19948;-61
2022/09/23 16:21:44;;;;;;;;;;;;;;;;;;4950146;28;19926;-61
2022/09/23 16:24:12;;;;;;;;;;;;;;;;;;4979796;28;20028;-61
2022/09/23 16:26:38;;;;;;;;;;;;;;;;;;4951492;28;20024;-61
2022/09/23 16:32:23;;;;;;;;;;;;;;;;;;4979993;28;19924;-62
2022/09/23 16:34:56;;;;;;;;;;;;;;;;;;4964751;28;19921;-62
2022/09/23 16:37:24;;;;;;;;;;;;;;;;;;4980973;28;20008;-61
2022/09/23 16:39:50;;;;;;;;;;;;;;;;;;4970776;28;19921;-62
2022/09/23 16:42:16;;;;;;;;;;;;;;;;;;4985822;28;19918;-63
2022/09/23 16:44:42;;;;;;;;;;;;;;;;;;4982047;28;19929;-62
2022/09/23 16:47:07;;;;;;;;;;;;;;;;;;4986416;28;19944;-63
2022/09/23 16:49:33;;;;;;;;;;;;;;;;;;4983142;28;19922;-63
2022/09/23 16:52:13;;;;;;;;;;;;;;;;;;4956637;28;19947;-61
2022/09/23 16:54:42;;;;;;;;;;;;;;;;;;4967181;28;19936;-61
2022/09/23 16:57:12;;;;;;;;;;;;;;;;;;4967897;28;19961;-61
2022/09/23 17:05:15;;;;;;;;;;;;;;;;;;4967393;28;20363;-62
2022/09/23 17:07:40;;;;;;;;;;;;;;;;;;4983259;28;19933;-63
2022/09/23 17:10:05;;;;;;;;;;;;;;;;;;4969217;28;19921;-62
2022/09/23 17:12:34;;;;;;;;;;;;;;;;;;4985083;28;20020;-62
2022/09/23 17:15:01;;;;;;;;;;;;;;;;;;4968209;28;20040;-63
2022/09/23 17:20:15;;;;;;;;;;;;;;;;;;4969574;28;19918;-63
2022/09/23 17:22:40;;;;;;;;;;;;;;;;;;4968927;28;19922;-62
2022/09/23 17:25:06;;;;;;;;;;;;;;;;;;4966186;28;19921;-62
2022/09/23 17:27:34;;;;;;;;;;;;;;;;;;4983545;28;20012;-62
2022/09/23 17:33:20;;;;;;;;;;;;;;;;;;4983189;28;19929;-63
2022/09/23 17:35:46;;;;;;;;;;;;;;;;;;4967619;28;19932;-62
2022/09/23 17:38:12;;;;;;;;;;;;;;;;;;4966805;28;19926;-62
2022/09/23 17:40:39;;;;;;;;;;;;;;;;;;4981405;28;19922;-62
2022/09/23 17:43:06;;;;;;;;;;;;;;;;;;4967842;28;19980;-62
2022/09/23 17:45:35;;;;;;;;;;;;;;;;;;4983960;28;19917;-62
2022/09/23 17:48:05;;;;;;;;;;;;;;;;;;4969060;28;19922;-62
2022/09/23 17:50:33;;;;;;;;;;;;;;;;;;4963308;28;19922;-62
2022/09/23 17:56:17;;;;;;;;;;;;;;;;;;4977858;28;20632;-62
2022/09/23 17:58:43;;;;;;;;;;;;;;;;;;4963960;28;20036;-62
2022/09/23 18:01:11;;;;;;;;;;;;;;;;;;4969419;28;20889;-61
2022/09/23 18:06:52;;;;;;;;;;;;;;;;;;4979492;28;20011;-62
2022/09/23 18:09:18;;;;;;;;;;;;;;;;;;4966557;28;19945;-62
2022/09/23 18:11:44;;;;;;;;;;;;;;;;;;4969345;28;20676;-64
2022/09/23 18:14:12;;;;;;;;;;;;;;;;;;4981698;28;19929;-63
2022/09/23 18:16:38;;;;;;;;;;;;;;;;;;4985260;28;19964;-62
2022/09/23 18:19:03;;;;;;;;;;;;;;;;;;4968926;28;20012;-64
2022/09/23 18:21:29;;;;;;;;;;;;;;;;;;4981611;28;19921;-64
2022/09/23 18:23:54;;;;;;;;;;;;;;;;;;4965402;28;19956;-64
2022/09/23 18:26:22;;;;;;;;;;;;;;;;;;4968008;28;20047;-64
2022/09/23 18:28:47;;;;;;;;;;;;;;;;;;4957711;28;19918;-65
2022/09/23 18:31:12;;;;;;;;;;;;;;;;;;4983675;28;19933;-64
2022/09/23 18:33:38;;;;;;;;;;;;;;;;;;4968758;28;19928;-63
2022/09/23 18:36:03;;;;;;;;;;;;;;;;;;4971872;28;19921;-64
2022/09/23 18:38:31;;;;;;;;;;;;;;;;;;4982792;28;19918;-63
2022/09/23 18:41:01;;;;;;;;;;;;;;;;;;4963198;28;19928;-63
2022/09/23 18:43:30;;;;;;;;;;;;;;;;;;4985392;28;19921;-62
2022/09/23 18:45:58;;;;;;;;;;;;;;;;;;4982511;28;19942;-64
2022/09/23 18:51:08;;;;;;;;;;;;;;;;;;4985007;28;20289;-65
2022/09/23 18:53:33;;;;;;;;;;;;;;;;;;4983474;28;19944;-64
2022/09/23 18:55:58;;;;;;;;;;;;;;;;;;4984295;28;19921;-63
2022/09/23 18:58:26;;;;;;;;;;;;;;;;;;4953907;28;20310;-63
2022/09/23 19:00:52;;;;;;;;;;;;;;;;;;4984593;28;19928;-64
2022/09/23 19:03:18;;;;;;;;;;;;;;;;;;4987322;28;19937;-64
2022/09/23 19:05:43;;;;;;;;;;;;;;;;;;4952990;28;19921;-64
2022/09/23 19:08:24;;;;;;;;;;;;;;;;;;4988160;28;19918;-64
2022/09/23 19:10:49;;;;;;;;;;;;;;;;;;4982135;28;19925;-64